sensor_id;sensor_type;location;lat;lon;timestamp;P1;durP1;ratioP1;P2;durP2;ratioP2
6751;SDS011;3413;47.680;9.166;2024-02-23T00:01:13;0.90;;;0.63;;
6751;SDS011;3413;47.680;9.166;2024-02-23T00:06:15;1.00;;;0.90;;
6751;SDS011;3413;47.680;9.166;2024-02-23T00:11:17;0.80;;;0.60;;
6751;SDS011;3413;47.680;9.166;2024-02-23T00:16:19;0.80;;;0.60;;
6751;SDS011;3413;47.680;9.166;2024-02-23T00:21:21;0.80;;;0.60;;
6751;SDS011;3413;47.680;9.166;2024-02-23T00:26:23;0.77;;;0.50;;
6751;SDS011;3413;47.680;9.166;2024-02-23T00:31:25;0.80;;;0.60;;
6751;SDS011;3413;47.680;9.166;2024-02-23T00:36:26;0.80;;;0.60;;
6751;SDS011;3413;47.680;9.166;2024-02-23T00:41:28;2.20;;;1.00;;
6751;SDS011;3413;47.680;9.166;2024-02-23T00:46:30;0.80;;;0.60;;
6751;SDS011;3413;47.680;9.166;2024-02-23T00:51:33;0.80;;;0.63;;
6751;SDS011;3413;47.680;9.166;2024-02-23T00:56:35;0.73;;;0.50;;
6751;SDS011;3413;47.680;9.166;2024-02-23T01:01:51;0.80;;;0.60;;
6751;SDS011;3413;47.680;9.166;2024-02-23T01:06:53;2.00;;;0.60;;
6751;SDS011;3413;47.680;9.166;2024-02-23T01:11:55;0.80;;;0.60;;
6751;SDS011;3413;47.680;9.166;2024-02-23T01:16:57;1.10;;;0.70;;
6751;SDS011;3413;47.680;9.166;2024-02-23T01:21:59;0.80;;;0.60;;
6751;SDS011;3413;47.680;9.166;2024-02-23T01:27:01;1.00;;;0.70;;
6751;SDS011;3413;47.680;9.166;2024-02-23T01:32:03;1.00;;;0.70;;
6751;SDS011;3413;47.680;9.166;2024-02-23T01:37:06;1.20;;;0.83;;
6751;SDS011;3413;47.680;9.166;2024-02-23T01:42:08;0.80;;;0.60;;
6751;SDS011;3413;47.680;9.166;2024-02-23T01:47:10;0.80;;;0.57;;
6751;SDS011;3413;47.680;9.166;2024-02-23T01:52:13;1.30;;;0.63;;
6751;SDS011;3413;47.680;9.166;2024-02-23T01:57:16;0.73;;;0.53;;
6751;SDS011;3413;47.680;9.166;2024-02-23T02:02:38;0.80;;;0.60;;
6751;SDS011;3413;47.680;9.166;2024-02-23T02:07:40;0.70;;;0.57;;
6751;SDS011;3413;47.680;9.166;2024-02-23T02:12:45;3.37;;;0.90;;
6751;SDS011;3413;47.680;9.166;2024-02-23T02:17:48;0.80;;;0.60;;
6751;SDS011;3413;47.680;9.166;2024-02-23T02:22:50;0.90;;;0.60;;
6751;SDS011;3413;47.680;9.166;2024-02-23T02:27:52;0.90;;;0.60;;
6751;SDS011;3413;47.680;9.166;2024-02-23T02:32:54;0.90;;;0.70;;
6751;SDS011;3413;47.680;9.166;2024-02-23T02:37:56;0.70;;;0.40;;
6751;SDS011;3413;47.680;9.166;2024-02-23T02:42:58;0.80;;;0.60;;
6751;SDS011;3413;47.680;9.166;2024-02-23T02:48:00;0.90;;;0.60;;
6751;SDS011;3413;47.680;9.166;2024-02-23T02:53:05;0.80;;;0.50;;
6751;SDS011;3413;47.680;9.166;2024-02-23T02:58:07;2.03;;;0.70;;
6751;SDS011;3413;47.680;9.166;2024-02-23T03:03:09;0.80;;;0.60;;
6751;SDS011;3413;47.680;9.166;2024-02-23T03:08:11;0.90;;;0.60;;
6751;SDS011;3413;47.680;9.166;2024-02-23T03:13:13;1.30;;;0.83;;
6751;SDS011;3413;47.680;9.166;2024-02-23T03:18:15;1.00;;;0.70;;
6751;SDS011;3413;47.680;9.166;2024-02-23T03:23:17;1.10;;;0.80;;
6751;SDS011;3413;47.680;9.166;2024-02-23T03:28:19;0.80;;;0.60;;
6751;SDS011;3413;47.680;9.166;2024-02-23T03:33:21;0.80;;;0.60;;
6751;SDS011;3413;47.680;9.166;2024-02-23T03:38:23;1.57;;;0.80;;
6751;SDS011;3413;47.680;9.166;2024-02-23T03:43:25;1.00;;;0.80;;
6751;SDS011;3413;47.680;9.166;2024-02-23T03:48:26;0.90;;;0.60;;
6751;SDS011;3413;47.680;9.166;2024-02-23T03:53:28;5.17;;;0.80;;
6751;SDS011;3413;47.680;9.166;2024-02-23T03:58:30;2.90;;;1.10;;
6751;SDS011;3413;47.680;9.166;2024-02-23T04:03:32;0.90;;;0.70;;
6751;SDS011;3413;47.680;9.166;2024-02-23T04:08:34;1.40;;;0.77;;
6751;SDS011;3413;47.680;9.166;2024-02-23T04:13:36;3.30;;;1.33;;
6751;SDS011;3413;47.680;9.166;2024-02-23T04:18:38;1.10;;;0.70;;
6751;SDS011;3413;47.680;9.166;2024-02-23T04:23:40;0.93;;;0.77;;
6751;SDS011;3413;47.680;9.166;2024-02-23T04:28:42;1.30;;;0.70;;
6751;SDS011;3413;47.680;9.166;2024-02-23T04:33:44;1.63;;;1.00;;
6751;SDS011;3413;47.680;9.166;2024-02-23T04:38:46;1.57;;;0.70;;
6751;SDS011;3413;47.680;9.166;2024-02-23T04:43:48;0.90;;;0.70;;
6751;SDS011;3413;47.680;9.166;2024-02-23T04:48:50;1.03;;;0.70;;
6751;SDS011;3413;47.680;9.166;2024-02-23T04:53:52;0.80;;;0.60;;
6751;SDS011;3413;47.680;9.166;2024-02-23T04:58:54;3.37;;;0.73;;
6751;SDS011;3413;47.680;9.166;2024-02-23T05:03:56;1.20;;;0.90;;
6751;SDS011;3413;47.680;9.166;2024-02-23T05:08:58;1.00;;;0.60;;
6751;SDS011;3413;47.680;9.166;2024-02-23T05:14:00;0.80;;;0.50;;
6751;SDS011;3413;47.680;9.166;2024-02-23T05:19:02;2.77;;;0.67;;
6751;SDS011;3413;47.680;9.166;2024-02-23T05:24:04;1.00;;;0.90;;
6751;SDS011;3413;47.680;9.166;2024-02-23T05:29:07;1.57;;;0.97;;
6751;SDS011;3413;47.680;9.166;2024-02-23T05:34:09;3.17;;;0.60;;
6751;SDS011;3413;47.680;9.166;2024-02-23T05:39:11;1.00;;;0.80;;
6751;SDS011;3413;47.680;9.166;2024-02-23T05:44:14;1.87;;;0.80;;
6751;SDS011;3413;47.680;9.166;2024-02-23T05:49:16;0.90;;;0.70;;
6751;SDS011;3413;47.680;9.166;2024-02-23T05:54:18;1.80;;;0.70;;
6751;SDS011;3413;47.680;9.166;2024-02-23T05:59:20;1.73;;;0.73;;
6751;SDS011;3413;47.680;9.166;2024-02-23T06:04:22;3.47;;;0.90;;
6751;SDS011;3413;47.680;9.166;2024-02-23T06:09:25;1.27;;;0.97;;
6751;SDS011;3413;47.680;9.166;2024-02-23T06:14:27;5.00;;;1.13;;
6751;SDS011;3413;47.680;9.166;2024-02-23T06:19:29;5.20;;;1.00;;
6751;SDS011;3413;47.680;9.166;2024-02-23T06:24:31;2.97;;;1.03;;
6751;SDS011;3413;47.680;9.166;2024-02-23T06:29:32;1.53;;;0.80;;
6751;SDS011;3413;47.680;9.166;2024-02-23T06:34:35;2.30;;;1.20;;
6751;SDS011;3413;47.680;9.166;2024-02-23T06:39:37;6.43;;;1.00;;
6751;SDS011;3413;47.680;9.166;2024-02-23T06:44:39;1.67;;;0.87;;
6751;SDS011;3413;47.680;9.166;2024-02-23T06:49:41;1.00;;;0.80;;
6751;SDS011;3413;47.680;9.166;2024-02-23T06:54:44;2.57;;;1.40;;
6751;SDS011;3413;47.680;9.166;2024-02-23T06:59:46;3.53;;;1.10;;
6751;SDS011;3413;47.680;9.166;2024-02-23T07:04:48;1.20;;;0.90;;
6751;SDS011;3413;47.680;9.166;2024-02-23T07:10:14;1.63;;;0.80;;
6751;SDS011;3413;47.680;9.166;2024-02-23T07:15:23;1.77;;;0.90;;
6751;SDS011;3413;47.680;9.166;2024-02-23T07:20:36;1.60;;;0.77;;
6751;SDS011;3413;47.680;9.166;2024-02-23T07:25:39;2.53;;;1.07;;
6751;SDS011;3413;47.680;9.166;2024-02-23T07:31:02;2.03;;;1.10;;
6751;SDS011;3413;47.680;9.166;2024-02-23T07:36:25;1.90;;;0.97;;
6751;SDS011;3413;47.680;9.166;2024-02-23T07:41:58;1.13;;;0.97;;
6751;SDS011;3413;47.680;9.166;2024-02-23T07:47:13;2.23;;;1.00;;
6751;SDS011;3413;47.680;9.166;2024-02-23T07:52:22;2.30;;;1.17;;
6751;SDS011;3413;47.680;9.166;2024-02-23T07:57:26;7.23;;;1.17;;
6751;SDS011;3413;47.680;9.166;2024-02-23T08:02:28;2.10;;;1.10;;
6751;SDS011;3413;47.680;9.166;2024-02-23T08:07:31;1.33;;;1.00;;
6751;SDS011;3413;47.680;9.166;2024-02-23T08:12:34;1.77;;;1.10;;
6751;SDS011;3413;47.680;9.166;2024-02-23T08:17:47;4.10;;;1.70;;
6751;SDS011;3413;47.680;9.166;2024-02-23T08:22:56;1.50;;;1.10;;
6751;SDS011;3413;47.680;9.166;2024-02-23T08:27:59;2.37;;;1.10;;
6751;SDS011;3413;47.680;9.166;2024-02-23T08:33:02;5.00;;;2.43;;
6751;SDS011;3413;47.680;9.166;2024-02-23T08:38:05;3.43;;;1.67;;
6751;SDS011;3413;47.680;9.166;2024-02-23T08:43:08;1.50;;;1.00;;
6751;SDS011;3413;47.680;9.166;2024-02-23T08:48:10;2.93;;;1.30;;
6751;SDS011;3413;47.680;9.166;2024-02-23T08:53:18;2.43;;;1.23;;
6751;SDS011;3413;47.680;9.166;2024-02-23T08:58:22;1.83;;;1.10;;
6751;SDS011;3413;47.680;9.166;2024-02-23T09:03:24;1.73;;;1.00;;
6751;SDS011;3413;47.680;9.166;2024-02-23T09:08:27;1.57;;;1.10;;
6751;SDS011;3413;47.680;9.166;2024-02-23T09:13:30;1.07;;;0.90;;
6751;SDS011;3413;47.680;9.166;2024-02-23T09:18:32;2.40;;;1.27;;
6751;SDS011;3413;47.680;9.166;2024-02-23T09:23:35;3.73;;;1.10;;
6751;SDS011;3413;47.680;9.166;2024-02-23T09:28:38;3.90;;;1.10;;
6751;SDS011;3413;47.680;9.166;2024-02-23T09:33:44;2.17;;;1.10;;
6751;SDS011;3413;47.680;9.166;2024-02-23T09:38:48;1.70;;;1.10;;
6751;SDS011;3413;47.680;9.166;2024-02-23T09:43:52;1.83;;;1.10;;
6751;SDS011;3413;47.680;9.166;2024-02-23T09:49:02;3.63;;;1.00;;
6751;SDS011;3413;47.680;9.166;2024-02-23T09:54:05;1.10;;;0.80;;
6751;SDS011;3413;47.680;9.166;2024-02-23T09:59:08;3.33;;;0.80;;
6751;SDS011;3413;47.680;9.166;2024-02-23T10:04:11;1.83;;;0.90;;
6751;SDS011;3413;47.680;9.166;2024-02-23T10:09:14;3.17;;;1.10;;
6751;SDS011;3413;47.680;9.166;2024-02-23T10:14:19;1.00;;;0.80;;
6751;SDS011;3413;47.680;9.166;2024-02-23T10:19:22;4.30;;;1.17;;
6751;SDS011;3413;47.680;9.166;2024-02-23T10:24:33;7.53;;;1.20;;
6751;SDS011;3413;47.680;9.166;2024-02-23T10:29:35;4.97;;;1.07;;
6751;SDS011;3413;47.680;9.166;2024-02-23T10:34:38;3.17;;;0.83;;
6751;SDS011;3413;47.680;9.166;2024-02-23T10:39:47;0.90;;;0.73;;
6751;SDS011;3413;47.680;9.166;2024-02-23T10:44:53;4.23;;;1.00;;
6751;SDS011;3413;47.680;9.166;2024-02-23T10:49:59;2.93;;;0.87;;
6751;SDS011;3413;47.680;9.166;2024-02-23T10:55:06;3.23;;;1.00;;
6751;SDS011;3413;47.680;9.166;2024-02-23T11:00:15;2.93;;;1.00;;
6751;SDS011;3413;47.680;9.166;2024-02-23T11:05:20;1.83;;;0.77;;
6751;SDS011;3413;47.680;9.166;2024-02-23T11:10:24;1.53;;;0.90;;
6751;SDS011;3413;47.680;9.166;2024-02-23T11:15:30;0.90;;;0.60;;
6751;SDS011;3413;47.680;9.166;2024-02-23T11:20:38;1.33;;;0.80;;
6751;SDS011;3413;47.680;9.166;2024-02-23T11:25:42;1.63;;;0.77;;
6751;SDS011;3413;47.680;9.166;2024-02-23T11:30:48;1.47;;;1.10;;
6751;SDS011;3413;47.680;9.166;2024-02-23T11:35:52;2.73;;;1.07;;
6751;SDS011;3413;47.680;9.166;2024-02-23T11:40:55;1.20;;;0.80;;
6751;SDS011;3413;47.680;9.166;2024-02-23T11:46:01;1.80;;;0.87;;
6751;SDS011;3413;47.680;9.166;2024-02-23T11:51:04;3.33;;;0.90;;
6751;SDS011;3413;47.680;9.166;2024-02-23T11:56:07;1.93;;;0.90;;
6751;SDS011;3413;47.680;9.166;2024-02-23T12:01:10;2.60;;;0.90;;
6751;SDS011;3413;47.680;9.166;2024-02-23T12:06:14;1.67;;;1.10;;
6751;SDS011;3413;47.680;9.166;2024-02-23T12:11:24;1.80;;;1.10;;
6751;SDS011;3413;47.680;9.166;2024-02-23T12:16:29;1.67;;;1.00;;
6751;SDS011;3413;47.680;9.166;2024-02-23T12:21:35;6.00;;;2.23;;
6751;SDS011;3413;47.680;9.166;2024-02-23T12:26:41;8.83;;;1.80;;
6751;SDS011;3413;47.680;9.166;2024-02-23T12:31:45;5.27;;;1.33;;
6751;SDS011;3413;47.680;9.166;2024-02-23T12:36:50;3.60;;;1.30;;
6751;SDS011;3413;47.680;9.166;2024-02-23T12:42:00;2.53;;;0.93;;
6751;SDS011;3413;47.680;9.166;2024-02-23T12:47:03;4.57;;;1.30;;
6751;SDS011;3413;47.680;9.166;2024-02-23T12:52:08;1.60;;;1.10;;
6751;SDS011;3413;47.680;9.166;2024-02-23T12:57:17;2.23;;;1.13;;
6751;SDS011;3413;47.680;9.166;2024-02-23T13:02:20;2.00;;;0.97;;
6751;SDS011;3413;47.680;9.166;2024-02-23T13:07:22;1.63;;;1.23;;
6751;SDS011;3413;47.680;9.166;2024-02-23T13:12:32;1.10;;;0.90;;
6751;SDS011;3413;47.680;9.166;2024-02-23T13:17:35;2.13;;;1.57;;
6751;SDS011;3413;47.680;9.166;2024-02-23T13:22:38;2.10;;;1.53;;
6751;SDS011;3413;47.680;9.166;2024-02-23T13:27:40;6.70;;;1.90;;
6751;SDS011;3413;47.680;9.166;2024-02-23T13:32:42;9.20;;;1.33;;
6751;SDS011;3413;47.680;9.166;2024-02-23T13:37:44;2.77;;;1.00;;
6751;SDS011;3413;47.680;9.166;2024-02-23T13:42:46;2.43;;;1.07;;
6751;SDS011;3413;47.680;9.166;2024-02-23T13:47:57;2.10;;;1.10;;
6751;SDS011;3413;47.680;9.166;2024-02-23T13:53:01;2.00;;;0.90;;
6751;SDS011;3413;47.680;9.166;2024-02-23T13:58:03;2.43;;;1.07;;
6751;SDS011;3413;47.680;9.166;2024-02-23T14:03:05;1.90;;;0.90;;
6751;SDS011;3413;47.680;9.166;2024-02-23T14:08:08;5.57;;;1.33;;
6751;SDS011;3413;47.680;9.166;2024-02-23T14:13:09;6.50;;;1.20;;
6751;SDS011;3413;47.680;9.166;2024-02-23T14:18:12;2.93;;;1.03;;
6751;SDS011;3413;47.680;9.166;2024-02-23T14:23:14;3.47;;;0.80;;
6751;SDS011;3413;47.680;9.166;2024-02-23T14:28:15;3.77;;;1.20;;
6751;SDS011;3413;47.680;9.166;2024-02-23T14:33:17;5.90;;;0.80;;
6751;SDS011;3413;47.680;9.166;2024-02-23T14:38:20;3.20;;;1.00;;
6751;SDS011;3413;47.680;9.166;2024-02-23T14:43:22;5.00;;;1.23;;
6751;SDS011;3413;47.680;9.166;2024-02-23T14:48:24;1.07;;;0.90;;
6751;SDS011;3413;47.680;9.166;2024-02-23T14:53:26;1.60;;;0.90;;
6751;SDS011;3413;47.680;9.166;2024-02-23T14:58:29;4.73;;;1.07;;
6751;SDS011;3413;47.680;9.166;2024-02-23T15:03:31;1.50;;;1.00;;
6751;SDS011;3413;47.680;9.166;2024-02-23T15:08:34;1.50;;;0.90;;
6751;SDS011;3413;47.680;9.166;2024-02-23T15:13:36;1.57;;;0.90;;
6751;SDS011;3413;47.680;9.166;2024-02-23T15:18:38;1.97;;;1.20;;
6751;SDS011;3413;47.680;9.166;2024-02-23T15:23:40;2.60;;;0.90;;
6751;SDS011;3413;47.680;9.166;2024-02-23T15:28:44;1.50;;;0.93;;
6751;SDS011;3413;47.680;9.166;2024-02-23T15:33:46;1.10;;;0.97;;
6751;SDS011;3413;47.680;9.166;2024-02-23T15:38:49;2.13;;;0.87;;
6751;SDS011;3413;47.680;9.166;2024-02-23T15:43:51;1.50;;;0.80;;
6751;SDS011;3413;47.680;9.166;2024-02-23T15:48:52;1.93;;;1.17;;
6751;SDS011;3413;47.680;9.166;2024-02-23T15:53:54;1.57;;;1.03;;
6751;SDS011;3413;47.680;9.166;2024-02-23T15:58:57;4.80;;;1.20;;
6751;SDS011;3413;47.680;9.166;2024-02-23T16:03:59;3.23;;;1.00;;
6751;SDS011;3413;47.680;9.166;2024-02-23T16:09:00;1.90;;;0.70;;
6751;SDS011;3413;47.680;9.166;2024-02-23T16:14:04;3.20;;;1.20;;
6751;SDS011;3413;47.680;9.166;2024-02-23T16:19:07;1.50;;;1.00;;
6751;SDS011;3413;47.680;9.166;2024-02-23T16:24:13;2.97;;;1.53;;
6751;SDS011;3413;47.680;9.166;2024-02-23T16:29:15;1.40;;;0.90;;
6751;SDS011;3413;47.680;9.166;2024-02-23T16:34:17;1.73;;;1.20;;
6751;SDS011;3413;47.680;9.166;2024-02-23T16:39:19;1.73;;;1.13;;
6751;SDS011;3413;47.680;9.166;2024-02-23T16:44:21;2.53;;;1.10;;
6751;SDS011;3413;47.680;9.166;2024-02-23T16:49:24;25.70;;;4.40;;
6751;SDS011;3413;47.680;9.166;2024-02-23T16:54:26;6.43;;;1.40;;
6751;SDS011;3413;47.680;9.166;2024-02-23T16:59:28;1.40;;;0.80;;
6751;SDS011;3413;47.680;9.166;2024-02-23T17:04:30;1.17;;;0.80;;
6751;SDS011;3413;47.680;9.166;2024-02-23T17:09:32;2.80;;;0.90;;
6751;SDS011;3413;47.680;9.166;2024-02-23T17:14:34;1.57;;;1.00;;
6751;SDS011;3413;47.680;9.166;2024-02-23T17:19:36;1.77;;;1.00;;
6751;SDS011;3413;47.680;9.166;2024-02-23T17:24:39;2.07;;;1.00;;
6751;SDS011;3413;47.680;9.166;2024-02-23T17:29:40;2.70;;;1.13;;
6751;SDS011;3413;47.680;9.166;2024-02-23T17:34:42;1.07;;;0.87;;
6751;SDS011;3413;47.680;9.166;2024-02-23T17:39:44;1.83;;;1.10;;
6751;SDS011;3413;47.680;9.166;2024-02-23T17:44:46;4.73;;;2.03;;
6751;SDS011;3413;47.680;9.166;2024-02-23T17:49:48;4.23;;;1.50;;
6751;SDS011;3413;47.680;9.166;2024-02-23T17:54:50;2.70;;;1.47;;
6751;SDS011;3413;47.680;9.166;2024-02-23T17:59:52;1.70;;;1.20;;
6751;SDS011;3413;47.680;9.166;2024-02-23T18:04:54;1.23;;;1.10;;
6751;SDS011;3413;47.680;9.166;2024-02-23T18:09:56;1.10;;;0.80;;
6751;SDS011;3413;47.680;9.166;2024-02-23T18:14:58;3.90;;;1.50;;
6751;SDS011;3413;47.680;9.166;2024-02-23T18:20:00;3.87;;;1.80;;
6751;SDS011;3413;47.680;9.166;2024-02-23T18:25:02;1.70;;;1.27;;
6751;SDS011;3413;47.680;9.166;2024-02-23T18:30:04;1.77;;;1.23;;
6751;SDS011;3413;47.680;9.166;2024-02-23T18:35:06;2.83;;;1.20;;
6751;SDS011;3413;47.680;9.166;2024-02-23T18:40:10;1.30;;;1.00;;
6751;SDS011;3413;47.680;9.166;2024-02-23T18:45:13;1.70;;;1.37;;
6751;SDS011;3413;47.680;9.166;2024-02-23T18:50:15;3.80;;;2.00;;
6751;SDS011;3413;47.680;9.166;2024-02-23T18:55:18;1.93;;;1.40;;
6751;SDS011;3413;47.680;9.166;2024-02-23T19:00:20;7.13;;;1.50;;
6751;SDS011;3413;47.680;9.166;2024-02-23T19:05:23;3.87;;;1.30;;
6751;SDS011;3413;47.680;9.166;2024-02-23T19:10:25;2.03;;;1.20;;
6751;SDS011;3413;47.680;9.166;2024-02-23T19:15:28;1.70;;;1.20;;
6751;SDS011;3413;47.680;9.166;2024-02-23T19:20:31;1.53;;;1.07;;
6751;SDS011;3413;47.680;9.166;2024-02-23T19:25:33;8.80;;;1.67;;
6751;SDS011;3413;47.680;9.166;2024-02-23T19:30:36;2.33;;;1.53;;
6751;SDS011;3413;47.680;9.166;2024-02-23T19:35:44;1.87;;;1.57;;
6751;SDS011;3413;47.680;9.166;2024-02-23T19:54:19;4.47;;;2.00;;
6751;SDS011;3413;47.680;9.166;2024-02-23T20:19:02;4.00;;;2.00;;
6751;SDS011;3413;47.680;9.166;2024-02-23T20:24:52;3.77;;;1.87;;
6751;SDS011;3413;47.680;9.166;2024-02-23T21:08:43;8.97;;;3.10;;
6751;SDS011;3413;47.680;9.166;2024-02-23T21:13:45;6.80;;;3.37;;
6751;SDS011;3413;47.680;9.166;2024-02-23T21:18:47;5.33;;;3.10;;
6751;SDS011;3413;47.680;9.166;2024-02-23T21:23:49;9.40;;;2.60;;
6751;SDS011;3413;47.680;9.166;2024-02-23T21:28:51;4.87;;;2.30;;
6751;SDS011;3413;47.680;9.166;2024-02-23T21:33:53;3.47;;;2.50;;
6751;SDS011;3413;47.680;9.166;2024-02-23T21:38:56;3.43;;;2.10;;
6751;SDS011;3413;47.680;9.166;2024-02-23T21:43:59;4.20;;;1.63;;
6751;SDS011;3413;47.680;9.166;2024-02-23T21:49:01;3.07;;;1.73;;
6751;SDS011;3413;47.680;9.166;2024-02-23T21:54:04;2.13;;;1.77;;
6751;SDS011;3413;47.680;9.166;2024-02-23T21:59:06;2.77;;;1.60;;
6751;SDS011;3413;47.680;9.166;2024-02-23T22:04:08;6.00;;;2.60;;
6751;SDS011;3413;47.680;9.166;2024-02-23T22:09:10;6.23;;;2.57;;
6751;SDS011;3413;47.680;9.166;2024-02-23T22:14:12;7.47;;;2.30;;
6751;SDS011;3413;47.680;9.166;2024-02-23T22:19:14;2.60;;;1.57;;
6751;SDS011;3413;47.680;9.166;2024-02-23T22:24:16;2.23;;;1.47;;
6751;SDS011;3413;47.680;9.166;2024-02-23T22:29:18;3.90;;;1.67;;
6751;SDS011;3413;47.680;9.166;2024-02-23T22:34:21;8.60;;;3.67;;
6751;SDS011;3413;47.680;9.166;2024-02-23T22:39:23;5.63;;;2.50;;
6751;SDS011;3413;47.680;9.166;2024-02-23T22:44:25;4.40;;;1.73;;
6751;SDS011;3413;47.680;9.166;2024-02-23T22:49:27;3.13;;;1.60;;
6751;SDS011;3413;47.680;9.166;2024-02-23T22:54:29;5.13;;;2.30;;
6751;SDS011;3413;47.680;9.166;2024-02-23T22:59:31;5.03;;;1.83;;
6751;SDS011;3413;47.680;9.166;2024-02-23T23:04:33;15.63;;;3.37;;
6751;SDS011;3413;47.680;9.166;2024-02-23T23:09:35;6.03;;;1.90;;
6751;SDS011;3413;47.680;9.166;2024-02-23T23:14:37;7.17;;;3.30;;
6751;SDS011;3413;47.680;9.166;2024-02-23T23:19:40;4.37;;;2.37;;
6751;SDS011;3413;47.680;9.166;2024-02-23T23:24:41;2.77;;;1.60;;
6751;SDS011;3413;47.680;9.166;2024-02-23T23:29:43;3.33;;;1.63;;
6751;SDS011;3413;47.680;9.166;2024-02-23T23:34:45;4.07;;;1.97;;
6751;SDS011;3413;47.680;9.166;2024-02-23T23:39:49;2.10;;;1.33;;
6751;SDS011;3413;47.680;9.166;2024-02-23T23:44:51;3.67;;;1.43;;
6751;SDS011;3413;47.680;9.166;2024-02-23T23:49:53;2.80;;;1.57;;
6751;SDS011;3413;47.680;9.166;2024-02-23T23:54:54;7.03;;;2.40;;
6751;SDS011;3413;47.680;9.166;2024-02-23T23:59:56;4.80;;;1.87;;
